Time;durP1;ratioP1;P1;durP2;ratioP2;P2;SDS_P1;SDS_P2;PMS_P1;PMS_P2;Temp;Humidity;BMP_temperature;BMP_pressure;BME280_temperature;BME280_humidity;BME280_pressure;Samples;Min_cycle;Max_cycle;Signal;HPM_P1;HPM_P2
2022/02/05 00:00:43;;;;;;;16.92;5.93;;;;;;;3.28;82.82;101172.13;5092780;28;20050;-64
2022/02/05 00:02:57;;;;;;;18.17;5.75;;;;;;;3.33;82.53;101178.78;5075311;28;20051;-65
2022/02/05 00:05:34;;;;;;;14.25;6.05;;;;;;;3.38;82.50;101187.16;5073328;28;20117;-64
2022/02/05 00:11:16;;;;;;;11.23;5.22;;;;;;;3.31;82.83;101174.53;5073317;28;20132;-65
2022/02/05 00:38:37;;;;;;;17.30;4.13;;;;;;;3.37;81.27;101218.75;5049393;28;20045;-65
2022/02/05 00:41:13;;;;;;;13.65;5.32;;;;;;;3.46;81.60;101224.25;5031593;28;20047;-65
2022/02/05 00:43:48;;;;;;;17.73;5.32;;;;;;;3.34;81.74;101230.28;5049515;28;20041;-65
2022/02/05 00:46:15;;;;;;;14.13;4.85;;;;;;;3.38;82.24;101221.25;5031509;28;20074;-65
2022/02/05 00:48:42;;;;;;;14.25;4.95;;;;;;;3.21;82.59;101231.97;5049478;28;20048;-65
2022/02/05 00:51:14;;;;;;;17.50;5.70;;;;;;;3.31;81.76;101240.97;5049386;28;20041;-65
2022/02/05 00:53:44;;;;;;;15.13;5.63;;;;;;;3.30;81.87;101236.66;5031289;28;20091;-65
2022/02/05 00:56:19;;;;;;;13.13;4.88;;;;;;;3.24;81.83;101240.50;5049216;28;20045;-65
2022/02/05 00:58:46;;;;;;;12.55;4.75;;;;;;;3.38;81.64;101244.03;5009377;28;20069;-65
2022/02/05 01:01:13;;;;;;;12.35;5.20;;;;;;;3.24;82.11;101239.66;5031320;28;20033;-65
2022/02/05 01:03:39;;;;;;;13.77;5.35;;;;;;;3.39;81.94;101245.72;5047284;28;20441;-65
2022/02/05 01:06:07;;;;;;;18.40;4.63;;;;;;;3.31;81.34;101240.97;5048097;28;20441;-65
2022/02/05 01:08:35;;;;;;;17.42;5.13;;;;;;;3.29;81.40;101237.56;5048737;28;20452;-65
2022/02/05 01:11:02;;;;;;;19.27;5.00;;;;;;;3.31;81.81;101251.47;5031336;28;20053;-65
2022/02/05 01:13:32;;;;;;;11.52;4.55;;;;;;;3.33;81.39;101251.34;5048831;28;20045;-65
2022/02/05 01:16:08;;;;;;;14.60;4.25;;;;;;;3.28;81.50;101249.00;5047876;28;20041;-65
2022/02/05 01:18:38;;;;;;;14.35;4.50;;;;;;;3.34;81.19;101255.66;5048735;28;20060;-65
2022/02/05 01:21:12;;;;;;;14.00;5.00;;;;;;;3.16;81.95;101258.47;5031403;28;20186;-65
2022/02/05 01:23:45;;;;;;;14.63;5.30;;;;;;;3.16;82.07;101255.84;5028458;28;20046;-65
2022/02/05 01:29:01;;;;;;;13.52;4.57;;;;;;;3.18;81.95;101269.69;5114359;27;20386;-67
2022/02/05 01:31:34;;;;;;;15.88;4.70;;;;;;;3.22;82.00;101268.59;5107626;28;20075;-65
2022/02/05 01:48:51;;;;;;;15.48;4.90;;;;;;;3.04;82.61;101274.97;5105469;28;20121;-65
2022/02/05 01:58:56;;;;;;;15.50;4.90;;;;;;;3.25;82.08;101312.13;5090469;27;20394;-65
2022/02/05 02:04:51;;;;;;;19.15;5.50;;;;;;;3.25;81.75;101314.75;5067280;28;20053;-65
2022/02/05 02:07:10;;;;;;;17.77;4.88;;;;;;;3.20;82.45;101322.91;5067108;28;20374;-66
2022/02/05 02:09:52;;;;;;;18.33;5.20;;;;;;;3.22;82.22;101320.16;5073906;28;20044;-66
2022/02/05 02:12:23;;;;;;;19.88;4.88;;;;;;;3.28;81.74;101316.38;5090088;28;20132;-66
2022/02/05 02:23:14;;;;;;;18.10;4.63;;;;;;;3.09;82.37;101325.31;5050479;28;20400;-65
2022/02/05 02:28:22;;;;;;;18.80;4.53;;;;;;;3.19;82.44;101315.13;5034374;28;20046;-65
2022/02/05 02:30:56;;;;;;;16.83;4.20;;;;;;;3.17;81.64;101323.09;5030081;28;20045;-66
2022/02/05 02:33:30;;;;;;;16.80;4.03;;;;;;;3.22;81.55;101325.41;5012842;28;20057;-66
2022/02/05 02:35:57;;;;;;;14.00;3.85;;;;;;;3.28;81.27;101330.31;5028543;28;20050;-66
2022/02/05 02:38:33;;;;;;;19.20;4.47;;;;;;;3.07;81.34;101330.66;5012655;28;20046;-66
2022/02/05 02:41:06;;;;;;;16.02;4.40;;;;;;;3.07;82.06;101335.91;5030342;28;20054;-66
2022/02/05 02:43:34;;;;;;;13.65;3.97;;;;;;;3.18;81.70;101343.09;5031118;28;20494;-66
2022/02/05 02:46:01;;;;;;;25.55;4.35;;;;;;;3.18;81.52;101344.91;5044766;28;20395;-65
2022/02/05 02:48:28;;;;;;;13.23;3.80;;;;;;;3.22;80.86;101357.75;5048514;28;20049;-66
2022/02/05 02:56:51;;;;;;;12.98;3.33;;;;;;;3.18;80.78;101360.63;5049605;28;20045;-66
2022/02/05 02:59:46;;;;;;;12.63;3.15;;;;;;;3.17;81.28;101369.44;5049572;28;20128;-66
2022/02/05 03:02:12;;;;;;;15.40;3.55;;;;;;;3.10;81.76;101365.50;5034294;28;20083;-65
2022/02/05 03:04:38;;;;;;;13.77;3.47;;;;;;;3.16;80.84;101370.38;5031448;28;20124;-65
2022/02/05 03:07:05;;;;;;;10.88;3.50;;;;;;;3.06;81.53;101364.84;5048427;28;20091;-66
2022/02/05 03:09:32;;;;;;;16.60;4.05;;;;;;;3.11;81.42;101364.53;5049174;28;20516;-66
2022/02/05 03:11:59;;;;;;;18.52;3.70;;;;;;;3.01;81.39;101372.94;5048171;28;20440;-66
2022/02/05 03:14:26;;;;;;;19.52;4.68;;;;;;;3.15;81.24;101373.94;5031579;28;20575;-66
2022/02/05 03:17:01;;;;;;;17.10;4.03;;;;;;;3.19;80.93;101378.91;5049084;28;20037;-65
2022/02/05 03:19:28;;;;;;;17.20;5.07;;;;;;;3.19;80.75;101372.81;5032796;28;20490;-65
2022/02/05 03:21:55;;;;;;;17.33;4.15;;;;;;;3.01;81.05;101370.34;5048950;28;20049;-66
2022/02/05 03:24:22;;;;;;;22.63;4.43;;;;;;;3.11;81.41;101382.91;5031317;28;20041;-66
2022/02/05 03:26:48;;;;;;;20.27;3.88;;;;;;;3.11;81.78;101388.13;5049256;28;20445;-66
2022/02/05 03:29:15;;;;;;;12.52;3.97;;;;;;;3.15;81.14;101381.81;5048899;28;20068;-64
2022/02/05 03:31:43;;;;;;;13.07;3.75;;;;;;;3.18;80.98;101389.47;5047563;28;20040;-64
2022/02/05 03:34:10;;;;;;;21.15;4.10;;;;;;;3.13;80.90;101391.50;5033551;28;20038;-66
2022/02/05 03:36:40;;;;;;;14.18;3.20;;;;;;;3.12;80.90;101388.06;5034538;28;20044;-66
2022/02/05 03:39:07;;;;;;;12.82;3.63;;;;;;;3.21;81.08;101392.75;5018325;28;20512;-64
2022/02/05 03:41:33;;;;;;;19.58;3.80;;;;;;;3.09;80.73;101385.59;5034477;28;20095;-64
2022/02/05 03:44:01;;;;;;;11.82;3.22;;;;;;;3.19;80.35;101394.63;5033924;28;20049;-66
2022/02/05 03:46:29;;;;;;;14.88;3.55;;;;;;;3.08;81.00;101392.63;5034207;28;20042;-66
2022/02/05 03:48:57;;;;;;;12.65;3.35;;;;;;;3.13;80.95;101392.38;5034260;28;20048;-64
2022/02/05 03:51:24;;;;;;;13.85;3.47;;;;;;;3.10;80.82;101389.94;5035168;28;20490;-66
2022/02/05 03:53:52;;;;;;;19.73;3.50;;;;;;;3.17;80.38;101407.00;5035290;28;20067;-66
2022/02/05 03:56:18;;;;;;;20.23;3.97;;;;;;;3.21;80.20;101408.50;5035134;28;20041;-66
2022/02/05 03:58:45;;;;;;;13.25;3.10;;;;;;;3.04;80.72;101416.50;5034064;28;20042;-66
2022/02/05 04:01:13;;;;;;;18.05;4.30;;;;;;;2.95;81.21;101420.50;5035084;28;20052;-66
2022/02/05 04:03:40;;;;;;;11.75;3.28;;;;;;;3.03;80.65;101420.06;5032248;28;20194;-66
2022/02/05 04:06:07;;;;;;;12.45;2.80;;;;;;;3.00;80.90;101413.22;5022084;28;20042;-66
2022/02/05 04:08:34;;;;;;;13.45;3.70;;;;;;;3.04;80.49;101411.28;5015602;28;20057;-66
2022/02/05 04:11:08;;;;;;;14.60;3.70;;;;;;;3.05;81.04;101420.81;5013972;28;20046;-66
2022/02/05 04:16:22;;;;;;;15.30;3.30;;;;;;;2.95;81.22;101424.88;5015023;28;20041;-66
2022/02/05 04:18:50;;;;;;;20.48;3.35;;;;;;;3.02;81.13;101419.22;5013935;28;20048;-66
2022/02/05 04:21:18;;;;;;;12.15;3.15;;;;;;;3.16;80.69;101425.44;5014552;28;20058;-66
2022/02/05 04:23:47;;;;;;;15.85;3.88;;;;;;;3.08;80.79;101431.97;5013938;28;20042;-66
2022/02/05 04:26:17;;;;;;;13.25;3.53;;;;;;;3.13;80.24;101436.09;5015047;28;20045;-66
2022/02/05 04:28:44;;;;;;;10.30;2.75;;;;;;;3.05;80.60;101433.91;5015143;28;20502;-66
2022/02/05 04:31:10;;;;;;;17.40;2.97;;;;;;;3.08;80.51;101441.59;5012980;28;20121;-66
2022/02/05 04:33:38;;;;;;;22.48;3.83;;;;;;;3.07;79.75;101439.91;5014818;28;20034;-66
2022/02/05 04:36:06;;;;;;;14.15;3.42;;;;;;;3.07;80.59;101432.03;4997434;28;20053;-65
2022/02/05 04:38:35;;;;;;;13.70;2.90;;;;;;;3.07;80.12;101435.53;5013599;28;20068;-66
2022/02/05 04:41:11;;;;;;;17.05;4.20;;;;;;;3.18;79.90;101441.91;5018601;28;20493;-65
2022/02/05 04:49:27;;;;;;;11.50;3.42;;;;;;;3.00;80.39;101447.31;5033295;28;20046;-66
2022/02/05 04:52:20;;;;;;;15.73;3.53;;;;;;;3.00;80.18;101451.69;5034168;28;20038;-66
2022/02/05 04:54:55;;;;;;;13.10;3.60;;;;;;;2.95;80.44;101459.81;5034423;28;20053;-66
2022/02/05 05:00:20;;;;;;;21.17;3.88;;;;;;;3.01;80.24;101456.84;5017304;28;20061;-66
2022/02/05 05:06:01;;;;;;;15.80;4.03;;;;;;;3.01;79.62;101459.47;5031200;28;20409;-65
2022/02/05 05:08:52;;;;;;;9.20;3.17;;;;;;;3.03;79.40;101468.06;5033787;28;20057;-64
2022/02/05 05:19:31;;;;;;;18.35;3.30;;;;;;;3.00;79.87;101484.00;5116124;28;20043;-65
2022/02/05 05:22:00;;;;;;;15.23;3.20;;;;;;;2.91;79.81;101486.28;5131260;27;20035;-65
2022/02/05 05:24:28;;;;;;;16.02;3.33;;;;;;;2.93;79.94;101477.41;5130959;28;20074;-65
2022/02/05 05:26:55;;;;;;;11.77;3.35;;;;;;;2.87;80.06;101482.97;5111962;27;20043;-65
2022/02/05 05:29:22;;;;;;;16.42;3.75;;;;;;;2.95;79.66;101483.41;5110589;28;20097;-65
2022/02/05 05:31:49;;;;;;;14.00;3.42;;;;;;;2.91;80.06;101486.28;5111554;28;20047;-65
2022/02/05 05:34:16;;;;;;;12.23;3.47;;;;;;;2.90;80.07;101493.31;5130605;27;20043;-65
2022/02/05 05:36:42;;;;;;;12.90;3.50;;;;;;;2.83;80.14;101497.19;5129797;28;20039;-65
2022/02/05 05:39:11;;;;;;;14.05;3.30;;;;;;;2.85;79.74;101493.53;5130616;27;20043;-65
2022/02/05 05:41:39;;;;;;;14.15;3.38;;;;;;;2.64;80.38;101490.34;5130932;27;20041;-65
2022/02/05 05:47:13;;;;;;;15.50;3.90;;;;;;;2.78;80.72;101499.22;5130483;27;20522;-65
2022/02/05 05:52:31;;;;;;;14.75;3.58;;;;;;;2.85;80.49;101505.81;5070222;28;20783;-66
2022/02/05 05:54:58;;;;;;;15.07;3.83;;;;;;;2.77;80.88;101503.63;5070033;28;20068;-66
2022/02/05 05:57:28;;;;;;;14.57;3.60;;;;;;;2.76;80.51;101507.16;5054119;28;20049;-65
2022/02/05 05:59:55;;;;;;;13.35;3.42;;;;;;;2.77;80.47;101508.88;5050109;28;20045;-65
2022/02/05 06:02:22;;;;;;;16.48;3.60;;;;;;;2.77;80.63;101519.34;5048913;28;20095;-65
2022/02/05 06:04:49;;;;;;;16.63;4.80;;;;;;;2.87;80.11;101517.06;5033819;28;20037;-65
2022/02/05 06:07:16;;;;;;;14.95;3.80;;;;;;;2.85;80.01;101516.28;5067679;28;20049;-65
2022/02/05 06:09:43;;;;;;;18.98;4.15;;;;;;;2.68;80.94;101512.84;5052204;28;20061;-65
2022/02/05 06:12:11;;;;;;;13.23;3.20;;;;;;;2.83;80.04;101521.63;5038557;28;20037;-65
2022/02/05 06:14:39;;;;;;;19.67;4.13;;;;;;;2.72;80.74;101521.38;5049698;28;20049;-65
2022/02/05 06:17:08;;;;;;;16.25;3.38;;;;;;;2.76;80.94;101524.66;5049691;28;20069;-65
2022/02/05 06:19:37;;;;;;;15.35;3.92;;;;;;;2.69;81.26;101525.00;5015666;28;20037;-65
2022/02/05 06:22:04;;;;;;;16.45;4.15;;;;;;;2.67;81.35;101526.88;5061732;28;20486;-65
2022/02/05 06:24:31;;;;;;;15.50;3.35;;;;;;;2.74;81.24;101542.25;5069440;28;20127;-65
2022/02/05 06:26:58;;;;;;;15.82;4.10;;;;;;;2.82;81.17;101538.28;5069293;28;20090;-65
2022/02/05 06:29:24;;;;;;;12.68;3.38;;;;;;;2.85;80.64;101543.34;5035225;28;20116;-65
2022/02/05 06:31:51;;;;;;;20.25;4.15;;;;;;;2.81;80.67;101544.44;5034835;28;20056;-65
2022/02/05 06:34:18;;;;;;;15.75;4.03;;;;;;;2.76;80.69;101549.09;5033290;28;20044;-65
2022/02/05 06:36:44;;;;;;;17.70;4.18;;;;;;;2.88;80.80;101543.19;5069348;28;20045;-65
2022/02/05 06:39:11;;;;;;;9.95;3.22;;;;;;;2.87;80.80;101554.59;5069231;28;20044;-65
2022/02/05 06:41:38;;;;;;;14.52;3.88;;;;;;;2.86;80.59;101554.69;5068779;28;20048;-65
2022/02/05 06:44:05;;;;;;;21.67;4.18;;;;;;;2.95;80.54;101555.94;5068988;28;20049;-65
2022/02/05 06:46:31;;;;;;;16.45;3.65;;;;;;;2.98;80.57;101555.78;5069101;28;20037;-65
2022/02/05 06:48:58;;;;;;;18.02;4.25;;;;;;;2.92;80.29;101558.75;5068976;28;20095;-65
2022/02/05 06:51:25;;;;;;;16.85;3.92;;;;;;;2.88;80.36;101560.69;5064636;28;20049;-65
2022/02/05 06:53:51;;;;;;;13.75;3.13;;;;;;;2.83;80.97;101560.94;5034844;28;20119;-65
2022/02/05 06:56:18;;;;;;;18.90;4.05;;;;;;;2.84;81.25;101564.41;5067636;28;20488;-65
2022/02/05 06:58:45;;;;;;;22.73;3.78;;;;;;;2.74;80.70;101564.03;5068621;28;20489;-65
2022/02/05 07:01:11;;;;;;;11.95;3.88;;;;;;;2.77;81.32;101568.28;5034701;28;20136;-65
2022/02/05 07:03:38;;;;;;;15.23;3.80;;;;;;;2.71;81.83;101566.84;5054994;28;20143;-66
2022/02/05 07:06:05;;;;;;;18.02;3.63;;;;;;;2.93;81.01;101569.16;5055484;28;20045;-65
2022/02/05 07:08:33;;;;;;;22.70;4.78;;;;;;;2.68;81.35;101573.09;5055286;28;20270;-65
2022/02/05 07:11:00;;;;;;;15.73;4.25;;;;;;;2.73;81.20;101583.34;5054938;28;20436;-65
2022/02/05 07:13:27;;;;;;;17.15;3.80;;;;;;;2.72;81.35;101575.56;5035531;28;20041;-65
2022/02/05 07:16:15;;;;;;;18.08;4.05;;;;;;;2.76;81.57;101582.31;5035460;28;20037;-65
2022/02/05 07:18:53;;;;;;;17.15;3.70;;;;;;;2.73;81.38;101577.22;5035277;28;20096;-65
2022/02/05 07:21:31;;;;;;;17.20;3.58;;;;;;;2.83;81.01;101575.81;5003410;28;20042;-65
2022/02/05 07:29:22;;;;;;;25.75;3.72;;;;;;;2.84;81.19;101577.50;5034872;28;20069;-65
2022/02/05 07:31:51;;;;;;;19.98;3.67;;;;;;;2.70;81.47;101578.25;5017474;28;20042;-65
2022/02/05 07:34:21;;;;;;;17.80;4.05;;;;;;;2.91;81.32;101588.50;5033131;28;20056;-65
2022/02/05 07:36:49;;;;;;;19.23;3.92;;;;;;;2.81;81.23;101588.16;5017242;28;20044;-65
2022/02/05 07:39:18;;;;;;;15.73;3.75;;;;;;;2.86;81.55;101592.22;5017343;28;20056;-65
2022/02/05 07:41:45;;;;;;;20.40;4.72;;;;;;;3.02;81.31;101592.22;5017371;28;20453;-65
2022/02/05 07:44:14;;;;;;;21.50;4.40;;;;;;;3.02;81.09;101597.47;5017091;28;20045;-65
2022/02/05 07:46:44;;;;;;;18.17;4.35;;;;;;;3.12;81.12;101599.59;5017121;28;20041;-65
2022/02/05 07:49:13;;;;;;;18.73;3.92;;;;;;;3.22;81.12;101600.75;5034489;28;20046;-65
2022/02/05 07:51:41;;;;;;;18.20;3.78;;;;;;;3.21;80.38;101605.16;5024739;28;20107;-65
2022/02/05 07:54:10;;;;;;;18.38;3.95;;;;;;;3.17;81.04;101606.25;5034613;28;20099;-65
2022/02/05 07:56:45;;;;;;;20.70;4.00;;;;;;;3.20;80.73;101616.59;5034371;28;20067;-65
2022/02/05 07:59:13;;;;;;;17.48;4.32;;;;;;;3.38;79.92;101626.97;5016909;28;20092;-65
2022/02/05 08:01:40;;;;;;;12.32;3.10;;;;;;;3.33;80.17;101619.38;5037460;28;20067;-65
2022/02/05 08:04:08;;;;;;;16.08;4.07;;;;;;;3.12;80.44;101617.94;5032888;28;20046;-65
2022/02/05 08:06:36;;;;;;;10.38;2.92;;;;;;;3.16;80.59;101625.53;5034594;28;20049;-65
2022/02/05 08:09:13;;;;;;;15.23;3.70;;;;;;;3.17;80.96;101614.13;5000844;28;20534;-65
2022/02/05 08:11:46;;;;;;;12.32;3.33;;;;;;;3.10;81.24;101619.81;5001351;28;20079;-65
2022/02/05 08:14:13;;;;;;;12.98;3.55;;;;;;;3.13;80.79;101622.25;5015844;28;20037;-65
2022/02/05 08:16:49;;;;;;;16.38;3.17;;;;;;;3.05;81.34;101622.66;5034197;28;20048;-65
2022/02/05 08:19:17;;;;;;;25.27;4.38;;;;;;;3.26;81.17;101629.34;5018121;28;20045;-65
2022/02/05 08:21:49;;;;;;;10.00;2.97;;;;;;;3.33;80.16;101629.00;5034034;28;20490;-65
2022/02/05 08:24:17;;;;;;;21.48;3.95;;;;;;;3.25;80.90;101630.28;5016875;28;20099;-65
2022/02/05 08:26:45;;;;;;;21.02;3.65;;;;;;;3.40;80.35;101632.97;5025187;28;20056;-65
2022/02/05 08:29:13;;;;;;;20.95;4.03;;;;;;;3.33;80.58;101627.25;5016503;28;20049;-65
2022/02/05 08:31:40;;;;;;;17.83;4.32;;;;;;;3.38;80.43;101645.34;4998429;28;20447;-65
2022/02/05 08:34:06;;;;;;;18.58;3.70;;;;;;;3.42;80.33;101645.09;5034036;28;20086;-65
2022/02/05 08:36:43;;;;;;;16.58;4.35;;;;;;;3.64;80.09;101638.63;5014379;28;20051;-65
2022/02/05 08:39:11;;;;;;;19.88;4.07;;;;;;;3.75;79.19;101649.38;5019389;28;20041;-65
2022/02/05 08:41:39;;;;;;;11.68;3.40;;;;;;;3.97;78.18;101656.00;5019789;28;20136;-65
2022/02/05 08:44:05;;;;;;;14.40;3.70;;;;;;;3.83;78.82;101657.63;5053573;28;20055;-65
2022/02/05 08:46:32;;;;;;;13.27;3.65;;;;;;;3.78;79.01;101659.69;5035995;28;20041;-65
2022/02/05 08:48:59;;;;;;;20.63;4.18;;;;;;;3.76;79.34;101653.66;5053222;28;20102;-65
2022/02/05 08:51:26;;;;;;;22.33;4.35;;;;;;;3.83;79.06;101659.41;5053049;28;20049;-65
2022/02/05 08:53:54;;;;;;;16.30;3.88;;;;;;;3.79;79.30;101653.50;5053136;28;20108;-65
2022/02/05 08:56:23;;;;;;;22.33;4.20;;;;;;;3.83;79.15;101655.00;5053296;28;20488;-65
2022/02/05 08:58:53;;;;;;;16.38;3.97;;;;;;;3.73;79.21;101653.00;5018706;28;20413;-65
2022/02/05 09:01:27;;;;;;;20.35;4.55;;;;;;;3.81;79.89;101638.50;5019467;28;20064;-65
2022/02/05 09:04:07;;;;;;;23.95;4.85;;;;;;;3.94;79.12;101643.88;5051277;28;20041;-65
2022/02/05 09:06:39;;;;;;;23.38;4.43;;;;;;;3.86;79.61;101635.63;5033712;28;20039;-65
2022/02/05 09:09:55;;;;;;;14.20;4.00;;;;;;;3.87;79.57;101633.84;5041119;28;20049;-65
2022/02/05 09:12:14;;;;;;;19.20;4.65;;;;;;;3.90;80.04;101644.16;5012220;28;20044;-65
2022/02/05 09:14:44;;;;;;;17.85;4.40;;;;;;;4.15;79.28;101654.09;5032912;28;20045;-65
2022/02/05 09:17:12;;;;;;;18.42;4.80;;;;;;;3.99;79.38;101646.25;4999694;28;20067;-65
2022/02/05 09:19:40;;;;;;;13.68;3.50;;;;;;;4.09;79.50;101638.69;5031840;28;20108;-65
2022/02/05 09:22:07;;;;;;;21.85;4.63;;;;;;;4.07;79.75;101637.94;5022938;28;20045;-65
2022/02/05 09:24:36;;;;;;;25.65;4.47;;;;;;;4.15;79.19;101647.06;5032757;28;20494;-65
2022/02/05 09:27:07;;;;;;;18.75;4.68;;;;;;;4.17;79.13;101637.31;5032688;28;20461;-65
2022/02/05 09:29:41;;;;;;;20.33;5.18;;;;;;;4.09;78.91;101650.03;5015528;28;20120;-65
2022/02/05 09:32:08;;;;;;;25.05;5.18;;;;;;;4.18;79.20;101649.50;5013110;28;20132;-65
2022/02/05 09:34:35;;;;;;;21.05;4.85;;;;;;;4.27;78.72;101647.25;5042593;28;20045;-65
2022/02/05 09:37:02;;;;;;;17.52;4.47;;;;;;;4.24;78.79;101650.94;5052602;28;20040;-65
2022/02/05 09:39:29;;;;;;;16.83;4.70;;;;;;;4.31;78.71;101649.63;5052515;28;20040;-65
2022/02/05 09:41:55;;;;;;;17.75;4.65;;;;;;;4.51;78.78;101656.31;5052800;28;20049;-65
2022/02/05 09:44:30;;;;;;;33.17;5.65;;;;;;;4.46;78.39;101662.75;5034887;28;20045;-65
2022/02/05 09:46:57;;;;;;;18.73;4.10;;;;;;;4.48;78.62;101660.91;5034674;28;20043;-65
2022/02/05 09:49:26;;;;;;;20.13;4.47;;;;;;;4.51;77.91;101663.34;5052505;28;20040;-65
2022/02/05 09:52:14;;;;;;;29.27;5.55;;;;;;;4.56;77.56;101672.63;5051828;28;20041;-65
2022/02/05 09:54:43;;;;;;;20.10;4.78;;;;;;;4.53;77.70;101683.34;5034490;28;20036;-65
2022/02/05 09:57:10;;;;;;;28.88;4.43;;;;;;;4.38;77.61;101669.34;5034761;28;20103;-65
2022/02/05 09:59:46;;;;;;;28.55;5.63;;;;;;;4.51;77.78;101671.22;5018533;28;20482;-65
2022/02/05 10:02:29;;;;;;;21.80;4.10;;;;;;;4.64;77.52;101679.22;5034469;28;20036;-65
2022/02/05 10:05:04;;;;;;;18.20;4.03;;;;;;;4.72;76.94;101685.69;5045719;28;20037;-65
2022/02/05 10:07:55;;;;;;;23.40;4.70;;;;;;;4.81;76.63;101689.56;5017161;28;20058;-64
2022/02/05 10:10:23;;;;;;;19.77;4.20;;;;;;;4.85;77.16;101692.84;5014801;28;20136;-65
2022/02/05 10:13:09;;;;;;;18.13;4.38;;;;;;;5.07;76.22;101682.69;5031987;28;20076;-66
2022/02/05 10:15:38;;;;;;;22.83;4.82;;;;;;;4.89;76.68;101689.09;5032306;28;20061;-65
2022/02/05 10:18:07;;;;;;;25.45;5.07;;;;;;;4.87;76.92;101693.59;5032124;28;20091;-65
2022/02/05 10:20:39;;;;;;;23.50;4.68;;;;;;;5.12;77.01;101685.03;5014394;28;20049;-65
2022/02/05 10:23:09;;;;;;;18.92;4.75;;;;;;;5.19;76.12;101696.88;5031938;28;20038;-65
2022/02/05 10:25:37;;;;;;;23.52;4.93;;;;;;;5.34;75.47;101693.25;5031856;28;20151;-65
2022/02/05 10:28:10;;;;;;;19.15;4.47;;;;;;;5.41;75.79;101698.16;5032215;28;20065;-65
2022/02/05 10:30:44;;;;;;;21.75;5.50;;;;;;;5.43;74.21;101694.47;5008007;28;20053;-65
2022/02/05 10:33:25;;;;;;;24.77;5.65;;;;;;;5.35;75.38;101696.75;5035767;28;20030;-66
2022/02/05 10:44:22;;;;;;;20.73;4.43;;;;;;;5.44;74.38;101703.22;5090037;28;20032;-65
2022/02/05 10:46:54;;;;;;;18.33;4.45;;;;;;;5.58;74.80;101709.31;5090090;28;20032;-65
2022/02/05 10:49:48;;;;;;;17.38;4.80;;;;;;;5.74;74.36;101701.25;5090073;28;20488;-66
2022/02/05 10:52:34;;;;;;;26.73;5.35;;;;;;;6.00;73.26;101709.28;5089878;28;20090;-65
2022/02/05 10:55:24;;;;;;;20.55;4.88;;;;;;;6.17;72.40;101686.22;5072595;28;20041;-64
2022/02/05 10:58:15;;;;;;;19.45;4.75;;;;;;;6.42;71.86;101693.34;5058146;28;20467;-64
2022/02/05 11:06:00;;;;;;;20.40;4.80;;;;;;;6.73;70.57;101685.03;5051325;28;20056;-64
2022/02/05 11:08:27;;;;;;;24.27;5.00;;;;;;;6.72;69.95;101678.06;5051724;28;20079;-66
2022/02/05 11:18:58;;;;;;;23.17;3.90;;;;;;;6.13;70.01;101678.56;5110722;28;20039;-66
2022/02/05 11:21:38;;;;;;;17.23;4.65;;;;;;;6.20;70.06;101678.97;5110459;28;20058;-66
2022/02/05 11:24:07;;;;;;;19.85;4.78;;;;;;;6.53;68.91;101667.97;5109554;28;20088;-66
2022/02/05 11:26:34;;;;;;;23.77;4.45;;;;;;;6.39;68.56;101677.75;5110294;28;20047;-65
2022/02/05 11:29:03;;;;;;;19.80;4.40;;;;;;;6.27;69.73;101669.72;5092532;28;20040;-65
2022/02/05 11:31:42;;;;;;;22.60;4.82;;;;;;;5.96;70.95;101682.28;5108071;28;20130;-66
2022/02/05 11:34:21;;;;;;;16.70;4.55;;;;;;;5.90;71.33;101673.94;5110213;28;20044;-66
2022/02/05 11:37:09;;;;;;;15.77;4.25;;;;;;;6.12;71.19;101668.13;5109169;28;20048;-66
2022/02/05 11:39:46;;;;;;;25.10;4.78;;;;;;;8.27;62.94;101666.00;5109053;28;20044;-65
2022/02/05 11:42:35;;;;;;;17.30;4.50;;;;;;;7.71;65.23;101660.50;5108806;28;20032;-66
2022/02/05 11:45:27;;;;;;;22.00;4.75;;;;;;;7.10;66.30;101665.78;5125832;28;20491;-66
2022/02/05 11:47:56;;;;;;;18.30;4.10;;;;;;;6.79;67.02;101667.13;5109619;28;20488;-66
2022/02/05 11:50:26;;;;;;;19.77;4.53;;;;;;;6.70;67.79;101665.94;5108715;28;20044;-66
2022/02/05 11:52:54;;;;;;;17.45;4.05;;;;;;;6.42;66.12;101664.34;5108379;28;20036;-66
2022/02/05 11:55:38;;;;;;;18.05;4.03;;;;;;;6.46;67.49;101668.50;5109784;28;20043;-66
2022/02/05 11:58:07;;;;;;;18.70;4.90;;;;;;;6.84;67.85;101664.97;5103046;28;20054;-66
2022/02/05 12:00:37;;;;;;;19.30;4.70;;;;;;;7.83;64.62;101664.88;5109715;28;20040;-67
2022/02/05 12:03:28;;;;;;;20.35;4.60;;;;;;;8.82;61.44;101673.31;5117769;28;20036;-67
2022/02/05 12:06:00;;;;;;;19.83;3.92;;;;;;;8.41;62.03;101666.75;5109172;28;20059;-66
2022/02/05 12:08:32;;;;;;;18.10;4.63;;;;;;;8.35;61.79;101661.91;5106456;27;20047;-67
2022/02/05 12:11:01;;;;;;;25.90;4.97;;;;;;;7.93;63.63;101665.06;5101403;28;20608;-68
2022/02/05 12:13:36;;;;;;;20.35;5.65;;;;;;;8.16;62.90;101659.84;5109001;28;20039;-68
2022/02/05 12:19:17;;;;;;;19.35;5.30;;;;;;;7.36;65.59;101660.44;5139785;27;20123;-69
2022/02/05 12:22:12;;;;;;;15.65;5.07;;;;;;;7.50;65.35;101649.72;5128258;27;20043;-69
2022/02/05 12:25:04;;;;;;;24.05;5.40;;;;;;;8.24;63.06;101653.03;5124433;28;20491;-70
2022/02/05 12:27:33;;;;;;;15.95;4.90;;;;;;;8.81;60.05;101645.19;5129957;27;20059;-69
2022/02/05 12:30:35;;;;;;;26.92;8.32;;;;;;;8.99;60.15;101637.59;5124911;28;20060;-69
2022/02/05 12:33:04;;;;;;;14.85;4.93;;;;;;;9.66;57.53;101633.97;5128145;28;20399;-69
2022/02/05 12:35:32;;;;;;;16.77;4.47;;;;;;;8.84;59.47;101621.13;5130530;27;20406;-69
2022/02/05 12:38:04;;;;;;;19.77;4.70;;;;;;;8.41;61.14;101633.22;5127675;28;20517;-69
2022/02/05 12:40:41;;;;;;;13.77;4.57;;;;;;;9.23;59.95;101638.28;5129448;28;20047;-69
2022/02/05 12:43:08;;;;;;;19.50;4.50;;;;;;;9.90;55.84;101638.19;5129450;27;20043;-69
2022/02/05 12:45:46;;;;;;;19.15;4.35;;;;;;;9.28;56.89;101623.81;5130163;27;20088;-69
2022/02/05 12:48:17;;;;;;;18.50;4.07;;;;;;;10.43;53.57;101622.25;5124823;28;20031;-69
2022/02/05 12:50:44;;;;;;;18.67;3.85;;;;;;;9.65;54.33;101613.72;5129080;28;20134;-69
2022/02/05 12:53:11;;;;;;;17.90;4.03;;;;;;;9.45;55.11;101620.66;5124863;28;20452;-69
2022/02/05 12:55:45;;;;;;;18.40;4.10;;;;;;;9.48;55.36;101609.81;5107736;28;20123;-69
2022/02/05 12:58:16;;;;;;;18.52;3.90;;;;;;;9.74;54.87;101612.13;5091915;28;20078;-69
2022/02/05 13:00:43;;;;;;;20.30;3.95;;;;;;;9.84;54.94;101610.41;5128437;28;20044;-69
2022/02/05 13:03:27;;;;;;;13.77;3.45;;;;;;;10.15;54.47;101631.66;5126274;28;20044;-68
2022/02/05 13:05:54;;;;;;;23.73;4.82;;;;;;;9.03;54.79;101625.81;5111813;28;20130;-68
2022/02/05 13:08:21;;;;;;;11.95;3.38;;;;;;;8.21;57.60;101621.53;5126426;28;20040;-69
2022/02/05 13:10:49;;;;;;;18.02;3.67;;;;;;;8.62;56.62;101611.38;5125999;27;20039;-69
2022/02/05 13:13:16;;;;;;;9.80;3.05;;;;;;;8.16;57.42;101620.19;5127790;28;20074;-68
2022/02/05 13:15:52;;;;;;;17.90;3.60;;;;;;;8.91;56.82;101616.19;5120375;28;20092;-69
2022/02/05 13:18:30;;;;;;;17.33;4.18;;;;;;;8.10;56.91;101613.59;5128584;27;20086;-69
2022/02/05 13:26:26;;;;;;;12.98;3.20;;;;;;;7.98;57.61;101603.94;5104245;28;20071;-69
2022/02/05 13:29:19;;;;;;;15.10;3.58;;;;;;;8.30;57.01;101592.72;5105690;28;20047;-69
2022/02/05 13:34:34;;;;;;;10.63;3.13;;;;;;;7.83;56.59;101575.06;5112335;28;20048;-69
2022/02/05 13:37:14;;;;;;;13.93;3.28;;;;;;;7.86;56.98;101581.94;5100402;28;20085;-69
2022/02/05 13:39:59;;;;;;;16.95;3.50;;;;;;;7.95;56.29;101578.59;5108033;28;20047;-69
2022/02/05 13:42:31;;;;;;;11.13;3.15;;;;;;;8.14;55.34;101587.75;5088599;28;20071;-67
2022/02/05 13:45:01;;;;;;;;;;;;;;;8.25;56.83;101583.31;5106015;28;20047;-68
2022/02/05 13:47:31;;;;;;;15.38;3.90;;;;;;;8.53;55.53;101578.59;5088701;28;19948;-68
2022/02/05 13:50:08;;;;;;;10.55;3.05;;;;;;;8.10;55.78;101589.78;5089871;28;20044;-68
2022/02/05 13:52:48;;;;;;;14.75;3.50;;;;;;;7.88;56.76;101580.84;5088716;28;20059;-68
2022/02/05 13:55:25;;;;;;;17.75;3.70;;;;;;;7.94;56.46;101582.19;5072267;28;20055;-68
2022/02/05 13:57:56;;;;;;;17.45;3.60;;;;;;;8.44;55.09;101571.34;5088545;28;20040;-68
2022/02/05 14:00:24;;;;;;;16.63;3.92;;;;;;;8.72;54.61;101553.31;5089907;28;20071;-68
2022/02/05 14:02:58;;;;;;;16.13;3.67;;;;;;;8.32;55.07;101557.25;5088479;28;20029;-68
2022/02/05 14:05:25;;;;;;;18.75;4.35;;;;;;;8.10;56.22;101550.16;5086744;28;20076;-68